createdAt,value
2023-05-13T00:01:31.827Z,30.15
2023-05-13T00:03:59.781Z,24.60
2023-05-13T00:06:27.748Z,39.35
2023-05-13T00:08:56.436Z,46.83
2023-05-13T00:11:25.748Z,47.92
2023-05-13T00:13:53.741Z,49.85
2023-05-13T00:16:24.187Z,53.03
2023-05-13T00:18:52.341Z,51.05
2023-05-13T00:21:20.330Z,45.70
2023-05-13T00:23:48.431Z,42.63
2023-05-13T00:26:16.372Z,50.35
2023-05-13T00:28:45.717Z,46.58
2023-05-13T00:31:13.664Z,55.58
2023-05-13T00:33:41.633Z,53.92
2023-05-13T00:36:12.177Z,54.67
2023-05-13T00:38:40.149Z,66.13
2023-05-13T00:41:08.489Z,65.07
2023-05-13T00:43:36.448Z,74.28
2023-05-13T00:46:06.276Z,91.97
2023-05-13T00:48:34.960Z,103.55
2023-05-13T00:51:03.042Z,78.38
2023-05-13T00:53:33.500Z,27.95
2023-05-13T00:56:01.965Z,38.17
2023-05-13T00:58:29.908Z,39.30
2023-05-13T01:01:09.024Z,46.42
2023-05-13T01:03:47.198Z,44.55
2023-05-13T01:06:20.033Z,50.75
2023-05-13T01:08:56.752Z,57.58
2023-05-13T01:11:29.050Z,58.00
2023-05-13T01:14:06.968Z,74.75
2023-05-13T01:16:40.650Z,83.22
2023-05-13T01:19:18.173Z,94.80
2023-05-13T01:21:54.607Z,95.43
2023-05-13T01:24:22.675Z,106.75
2023-05-13T01:26:50.796Z,113.85
2023-05-13T01:29:19.014Z,111.53
2023-05-13T01:31:47.848Z,108.22
2023-05-13T01:34:16.468Z,116.28
2023-05-13T01:36:45.321Z,116.82
2023-05-13T01:39:14.924Z,120.60
2023-05-13T01:41:42.985Z,129.45
2023-05-13T01:44:10.939Z,114.55
2023-05-13T01:46:39.336Z,126.63
2023-05-13T01:49:09.381Z,120.63
2023-05-13T01:51:37.914Z,117.55
2023-05-13T01:54:06.182Z,128.02
2023-05-13T01:56:36.041Z,123.60
2023-05-13T01:59:04.152Z,112.10
2023-05-13T02:01:32.167Z,119.53
2023-05-13T02:04:00.366Z,128.82
2023-05-13T02:06:28.563Z,124.03
2023-05-13T02:08:56.598Z,127.30
2023-05-13T02:11:24.562Z,127.97
2023-05-13T02:13:53.882Z,135.15
2023-05-13T02:16:23.027Z,134.93
2023-05-13T02:18:51.470Z,117.50
2023-05-13T02:21:19.458Z,114.20
2023-05-13T02:23:47.578Z,109.30
2023-05-13T02:26:15.533Z,108.37
2023-05-13T02:28:43.566Z,119.53
2023-05-13T02:31:12.885Z,116.27
2023-05-13T02:33:40.834Z,121.97
2023-05-13T02:36:09.059Z,114.47
2023-05-13T02:38:37.067Z,109.93
2023-05-13T02:41:05.188Z,101.40
2023-05-13T02:43:33.204Z,105.40
2023-05-13T02:46:01.166Z,103.70
2023-05-13T02:48:30.707Z,103.00
2023-05-13T02:50:58.648Z,99.57
2023-05-13T02:53:26.618Z,100.55
2023-05-13T02:55:54.646Z,101.47
2023-05-13T02:58:22.642Z,96.57
2023-05-13T03:00:50.604Z,112.13
2023-05-13T03:03:18.701Z,115.30
2023-05-13T03:05:48.062Z,116.65
2023-05-13T03:08:16.050Z,113.93
2023-05-13T03:10:45.457Z,100.53
2023-05-13T03:13:13.453Z,106.80
2023-05-13T03:15:44.115Z,110.57
2023-05-13T03:18:12.523Z,105.90
2023-05-13T03:20:40.519Z,111.20
2023-05-13T03:23:09.930Z,112.07
2023-05-13T03:25:37.937Z,114.68
2023-05-13T03:28:06.458Z,119.20
2023-05-13T03:30:34.448Z,116.00
2023-05-13T03:33:02.450Z,108.83
2023-05-13T03:35:30.599Z,112.33
2023-05-13T03:37:58.550Z,108.73
2023-05-13T03:40:27.909Z,101.57
2023-05-13T03:42:56.125Z,106.90
2023-05-13T03:45:24.085Z,101.00
2023-05-13T03:47:52.104Z,101.90
2023-05-13T03:50:20.273Z,98.87
2023-05-13T03:52:48.567Z,104.00
2023-05-13T03:55:16.530Z,103.87
2023-05-13T03:57:50.160Z,103.03
2023-05-13T04:00:18.496Z,108.53
2023-05-13T04:02:46.696Z,118.90
2023-05-13T04:05:14.971Z,111.07
2023-05-13T04:07:43.090Z,104.30
2023-05-13T04:10:18.824Z,107.17
2023-05-13T04:12:48.594Z,110.33
2023-05-13T04:15:16.604Z,114.63
2023-05-13T04:17:44.610Z,102.10
2023-05-13T04:20:13.126Z,124.07
2023-05-13T04:22:41.088Z,119.03
2023-05-13T04:25:09.828Z,126.17
2023-05-13T04:27:37.844Z,125.23
2023-05-13T04:30:08.564Z,124.33
2023-05-13T04:32:36.876Z,131.03
2023-05-13T04:35:05.202Z,132.43
2023-05-13T04:37:33.208Z,134.20
2023-05-13T04:40:01.441Z,128.50
2023-05-13T04:42:29.362Z,144.45
2023-05-13T04:44:57.457Z,129.88
2023-05-13T04:47:26.799Z,129.70
2023-05-13T04:49:54.886Z,139.20
2023-05-13T04:52:23.319Z,134.97
2023-05-13T04:54:51.299Z,145.03
2023-05-13T04:57:19.356Z,133.48
2023-05-13T04:59:47.343Z,136.52
2023-05-13T05:02:15.315Z,142.40
2023-05-13T05:04:45.561Z,140.37
2023-05-13T05:07:13.636Z,136.60
2023-05-13T05:09:41.610Z,137.67
2023-05-13T05:12:09.890Z,150.07
2023-05-13T05:14:38.193Z,157.07
2023-05-13T05:17:06.475Z,142.48
2023-05-13T05:19:34.516Z,150.73
2023-05-13T05:22:03.913Z,145.55
2023-05-13T05:24:31.884Z,157.17
2023-05-13T05:26:59.850Z,160.43
2023-05-13T05:29:28.130Z,158.50
2023-05-13T05:31:56.233Z,158.45
2023-05-13T05:34:24.279Z,167.07
2023-05-13T05:36:52.272Z,163.80
2023-05-13T05:39:22.081Z,160.55
2023-05-13T05:41:50.104Z,160.38
2023-05-13T05:44:18.153Z,165.70
2023-05-13T05:46:46.158Z,153.52
2023-05-13T05:49:14.103Z,152.50
2023-05-13T05:51:42.089Z,164.70
2023-05-13T05:54:10.107Z,171.25
2023-05-13T05:56:39.442Z,164.57
2023-05-13T05:59:07.384Z,173.32
2023-05-13T06:01:36.838Z,184.00
2023-05-13T06:04:06.688Z,190.23
2023-05-13T06:06:34.892Z,188.93
2023-05-13T06:09:02.924Z,197.40
2023-05-13T06:11:30.934Z,184.95
2023-05-13T06:14:00.555Z,190.90
2023-05-13T06:16:28.575Z,203.70
2023-05-13T06:18:56.645Z,218.68
2023-05-13T06:21:24.634Z,206.10
2023-05-13T06:23:52.623Z,207.02
2023-05-13T06:26:20.844Z,205.00
2023-05-13T06:28:49.015Z,198.07
2023-05-13T06:31:18.849Z,177.23
2023-05-13T06:33:46.849Z,194.43
2023-05-13T06:36:15.250Z,188.25
2023-05-13T06:38:43.216Z,195.57
2023-05-13T06:41:11.203Z,174.18
2023-05-13T06:43:39.838Z,183.85
2023-05-13T06:46:07.778Z,180.25
2023-05-13T06:48:37.111Z,187.93
2023-05-13T06:51:05.588Z,200.40
2023-05-13T06:53:33.543Z,193.45
2023-05-13T06:56:01.478Z,191.57
2023-05-13T06:58:29.458Z,192.27
2023-05-13T07:00:57.480Z,198.13
2023-05-13T07:03:25.945Z,209.25
2023-05-13T07:05:55.605Z,206.75
2023-05-13T07:08:23.834Z,215.25
2023-05-13T07:10:51.827Z,216.18
2023-05-13T07:13:20.402Z,227.13
2023-05-13T07:15:48.369Z,206.45
2023-05-13T07:18:16.386Z,218.27
2023-05-13T07:20:44.430Z,216.25
2023-05-13T07:23:13.926Z,194.13
2023-05-13T07:25:41.880Z,237.35
2023-05-13T07:28:09.874Z,220.63
2023-05-13T07:30:40.415Z,218.68
2023-05-13T07:33:08.589Z,209.30
2023-05-13T07:35:37.508Z,219.82
2023-05-13T07:38:05.712Z,229.18
2023-05-13T07:40:35.060Z,180.68
2023-05-13T07:43:03.115Z,188.70
2023-05-13T07:45:32.284Z,212.30
2023-05-13T07:48:00.301Z,203.05
2023-05-13T07:50:28.282Z,219.43
2023-05-13T07:52:56.255Z,227.00
2023-05-13T07:55:24.378Z,212.10
2023-05-13T07:57:53.754Z,202.10
2023-05-13T08:00:22.044Z,200.02
2023-05-13T08:02:50.108Z,206.43
2023-05-13T08:05:18.471Z,227.32
2023-05-13T08:07:46.448Z,219.40
2023-05-13T08:10:14.741Z,253.38
2023-05-13T08:12:43.399Z,249.60
2023-05-13T08:15:14.327Z,279.50
2023-05-13T08:17:42.354Z,281.02
2023-05-13T08:20:11.494Z,241.85
2023-05-13T08:22:39.497Z,247.85
2023-05-13T08:25:07.838Z,260.33
2023-05-13T08:27:36.478Z,253.93
2023-05-13T08:30:04.765Z,267.15
2023-05-13T08:32:34.165Z,252.45
2023-05-13T08:35:02.273Z,284.45
2023-05-13T08:37:30.279Z,274.38
2023-05-13T08:40:00.527Z,274.58
2023-05-13T08:42:32.087Z,272.52
2023-05-13T08:45:00.986Z,284.60
2023-05-13T08:47:38.335Z,302.52
2023-05-13T08:50:08.063Z,306.95
2023-05-13T08:52:36.289Z,301.73
2023-05-13T08:55:07.187Z,308.77
2023-05-13T08:57:35.147Z,330.75
2023-05-13T09:00:03.412Z,306.17
2023-05-13T09:02:31.501Z,316.27
2023-05-13T09:05:05.773Z,302.92
2023-05-13T09:07:34.054Z,301.67
2023-05-13T09:10:02.249Z,325.63
2023-05-13T09:12:55.189Z,317.55
2023-05-13T09:15:25.284Z,303.00
2023-05-13T09:17:56.212Z,290.58
2023-05-13T09:20:26.800Z,346.13
2023-05-13T09:22:59.794Z,280.40
2023-05-13T09:25:28.788Z,299.02
2023-05-13T09:27:59.154Z,349.77
2023-05-13T09:30:27.952Z,309.05
2023-05-13T09:33:10.103Z,328.33
2023-05-13T09:35:41.210Z,332.92
2023-05-13T09:38:16.787Z,338.23
2023-05-13T09:40:51.939Z,307.88
2023-05-13T09:43:21.447Z,299.27
2023-05-13T09:45:53.609Z,350.55
2023-05-13T09:48:23.220Z,330.05
2023-05-13T09:50:53.593Z,330.13
2023-05-13T09:53:21.834Z,301.15
2023-05-13T09:55:50.958Z,300.23
2023-05-13T09:58:20.216Z,283.48
2023-05-13T10:00:48.961Z,282.65
2023-05-13T10:03:17.151Z,280.30
2023-05-13T10:05:45.768Z,273.92
2023-05-13T10:08:15.894Z,279.20
2023-05-13T10:10:45.741Z,286.70
2023-05-13T10:13:16.340Z,287.10
2023-05-13T10:15:50.279Z,320.48
2023-05-13T10:18:19.145Z,336.33
2023-05-13T10:20:47.831Z,321.40
2023-05-13T10:23:17.740Z,319.10
2023-05-13T10:25:48.101Z,339.85
2023-05-13T10:28:16.692Z,326.60
2023-05-13T10:30:46.045Z,323.42
2023-05-13T10:33:14.779Z,320.83
2023-05-13T10:35:54.943Z,314.52
2023-05-13T10:38:36.669Z,330.30
2023-05-13T10:41:15.837Z,282.20
2023-05-13T10:43:43.942Z,273.80
2023-05-13T10:46:14.109Z,282.08
2023-05-13T10:48:43.736Z,276.83
2023-05-13T10:51:15.828Z,258.13
2023-05-13T10:53:48.922Z,282.63
2023-05-13T10:56:17.722Z,293.92
2023-05-13T10:58:59.439Z,277.88
2023-05-13T11:01:30.218Z,272.90
2023-05-13T11:04:00.121Z,265.33
2023-05-13T11:06:32.974Z,280.60
2023-05-13T11:09:02.597Z,268.45
2023-05-13T11:11:35.513Z,273.42
2023-05-13T11:14:15.662Z,297.80
2023-05-13T11:16:48.355Z,279.40
2023-05-13T11:19:28.553Z,302.02
2023-05-13T11:21:57.905Z,303.00
2023-05-13T11:24:27.872Z,283.67
2023-05-13T11:26:57.639Z,287.17
2023-05-13T11:29:30.558Z,261.02
2023-05-13T11:32:00.636Z,259.00
2023-05-13T11:34:29.996Z,287.80
2023-05-13T11:37:07.113Z,265.02
2023-05-13T11:39:37.164Z,267.25
2023-05-13T11:42:09.063Z,309.45
2023-05-13T11:44:37.389Z,298.80
2023-05-13T11:47:08.124Z,285.35
2023-05-13T11:49:40.073Z,289.25
2023-05-13T11:52:10.310Z,279.20
2023-05-13T11:54:49.775Z,280.67
2023-05-13T11:57:22.421Z,327.92
2023-05-13T11:59:54.985Z,315.80
2023-05-13T12:02:24.170Z,319.95
2023-05-13T12:04:52.881Z,335.08
2023-05-13T12:07:22.716Z,344.20
2023-05-13T12:09:53.360Z,342.20
2023-05-13T12:12:21.888Z,337.67
2023-05-13T12:14:51.196Z,304.13
2023-05-13T12:17:19.559Z,327.25
2023-05-13T12:20:10.265Z,397.75
2023-05-13T12:22:40.044Z,382.23
2023-05-13T12:25:37.809Z,412.77
2023-05-13T12:28:10.189Z,428.30
2023-05-13T12:30:39.477Z,430.30
2023-05-13T12:33:13.140Z,379.80
2023-05-13T12:35:41.982Z,418.80
2023-05-13T12:38:14.860Z,436.70
2023-05-13T12:40:44.328Z,435.42
2023-05-13T12:43:13.211Z,448.83
2023-05-13T12:45:44.760Z,490.00
2023-05-13T12:48:14.454Z,467.60
2023-05-13T12:50:42.545Z,445.77
2023-05-13T12:53:10.528Z,434.55
2023-05-13T12:55:39.936Z,423.98
2023-05-13T12:58:13.208Z,387.23
2023-05-13T13:00:41.301Z,382.05
2023-05-13T13:03:09.433Z,396.52
2023-05-13T13:05:37.645Z,384.98
2023-05-13T13:08:06.285Z,316.55
2023-05-13T13:10:34.738Z,307.92
2023-05-13T13:13:02.736Z,328.38
2023-05-13T13:15:32.084Z,318.33
2023-05-13T13:18:00.183Z,340.70
2023-05-13T13:20:28.234Z,323.05
2023-05-13T13:22:56.202Z,330.55
2023-05-13T13:25:24.384Z,330.58
2023-05-13T13:27:52.483Z,296.50
2023-05-13T13:30:20.507Z,271.00
2023-05-13T13:32:49.928Z,308.45
2023-05-13T13:35:18.052Z,307.63
2023-05-13T13:37:46.072Z,328.27
2023-05-13T13:40:14.661Z,345.75
2023-05-13T13:42:44.552Z,308.00
2023-05-13T13:45:13.638Z,320.50
2023-05-13T13:47:41.928Z,328.58
2023-05-13T13:50:12.407Z,293.85
2023-05-13T13:52:40.475Z,295.10
2023-05-13T13:55:09.701Z,299.58
2023-05-13T13:57:37.694Z,300.83
2023-05-13T14:00:06.993Z,306.23
2023-05-13T14:02:35.107Z,289.98
2023-05-13T14:05:03.118Z,277.30
2023-05-13T14:07:32.476Z,281.75
2023-05-13T14:10:01.557Z,311.35
2023-05-13T14:12:29.698Z,267.73
2023-05-13T14:14:57.673Z,262.58
2023-05-13T14:17:25.780Z,258.55
2023-05-13T14:19:55.410Z,251.95
2023-05-13T14:22:23.895Z,232.00
2023-05-13T14:24:53.990Z,229.15
2023-05-13T14:27:24.596Z,266.55
2023-05-13T14:29:53.018Z,272.90
2023-05-13T14:32:21.041Z,266.98
2023-05-13T14:34:49.043Z,297.15
2023-05-13T14:37:17.005Z,276.75
2023-05-13T14:39:46.553Z,202.32
2023-05-13T14:42:17.808Z,236.15
2023-05-13T14:44:46.036Z,243.32
2023-05-13T14:47:14.110Z,234.63
2023-05-13T14:49:42.115Z,212.63
2023-05-13T14:52:10.113Z,247.25
2023-05-13T14:54:38.298Z,248.00
2023-05-13T14:57:07.175Z,264.23
2023-05-13T14:59:37.052Z,255.85
2023-05-13T15:02:05.575Z,239.57
2023-05-13T15:04:33.570Z,252.45
2023-05-13T15:07:03.441Z,259.35
2023-05-13T15:09:31.430Z,203.43
2023-05-13T15:11:59.429Z,265.00
2023-05-13T15:14:28.306Z,251.43
2023-05-13T15:16:58.082Z,232.07
2023-05-13T15:19:26.150Z,243.38
2023-05-13T15:21:54.307Z,294.08
2023-05-13T15:24:22.339Z,234.10
2023-05-13T15:26:50.918Z,237.10
2023-05-13T15:29:18.895Z,235.73
2023-05-13T15:31:46.848Z,227.70
2023-05-13T15:34:16.163Z,278.17
2023-05-13T15:36:44.128Z,365.95
2023-05-13T15:39:12.094Z,486.17
2023-05-13T15:41:40.004Z,482.00
2023-05-13T15:44:07.983Z,469.13
2023-05-13T15:46:36.228Z,465.73
2023-05-13T15:49:04.250Z,451.50
2023-05-13T15:51:33.914Z,432.30
2023-05-13T15:54:02.000Z,328.52
2023-05-13T15:56:29.952Z,316.75
2023-05-13T15:58:57.896Z,267.75
2023-05-13T16:01:25.965Z,316.98
2023-05-13T16:03:54.021Z,292.63
2023-05-13T16:06:22.045Z,279.85
2023-05-13T16:08:51.861Z,322.33
2023-05-13T16:11:20.843Z,300.95
2023-05-13T16:13:49.463Z,303.73
2023-05-13T16:16:17.759Z,319.65
2023-05-13T16:18:45.827Z,284.15
2023-05-13T16:21:13.990Z,319.42
2023-05-13T16:23:43.519Z,297.08
2023-05-13T16:26:12.836Z,288.48
2023-05-13T16:28:40.828Z,237.27
2023-05-13T16:31:08.907Z,281.92
2023-05-13T16:33:37.233Z,281.05
2023-05-13T16:36:05.769Z,321.38
2023-05-13T16:38:35.345Z,286.92
2023-05-13T16:41:03.532Z,312.02
2023-05-13T16:43:32.848Z,305.15
2023-05-13T16:46:00.768Z,271.75
2023-05-13T16:48:28.900Z,281.70
2023-05-13T16:50:57.025Z,300.23
2023-05-13T16:53:26.287Z,314.45
2023-05-13T16:55:54.315Z,328.10
2023-05-13T16:58:22.294Z,363.52
2023-05-13T17:00:52.382Z,320.23
2023-05-13T17:03:20.597Z,347.77
2023-05-13T17:05:48.855Z,348.40
2023-05-13T17:08:18.863Z,356.02
2023-05-13T17:10:46.842Z,369.92
2023-05-13T17:13:14.804Z,336.35
2023-05-13T17:15:42.762Z,315.83
2023-05-13T17:18:12.165Z,328.35
2023-05-13T17:20:40.121Z,324.75
2023-05-13T17:23:08.090Z,303.38
2023-05-13T17:25:36.162Z,318.45
2023-05-13T17:28:07.908Z,236.23
2023-05-13T17:30:36.086Z,219.57
2023-05-13T17:33:04.053Z,284.27
2023-05-13T17:35:34.264Z,255.52
2023-05-13T17:38:02.248Z,242.13
2023-05-13T17:40:31.154Z,290.88
2023-05-13T17:43:03.057Z,273.50
2023-05-13T17:45:31.267Z,231.80
2023-05-13T17:47:59.461Z,235.73
2023-05-13T17:50:29.878Z,220.95
2023-05-13T17:53:01.487Z,242.23
2023-05-13T17:55:29.476Z,215.52
2023-05-13T17:57:58.887Z,202.77
2023-05-13T18:00:27.255Z,179.27
2023-05-13T18:02:55.341Z,213.55
2023-05-13T18:05:23.811Z,227.88
2023-05-13T18:07:52.138Z,233.98
2023-05-13T18:10:21.638Z,264.88
2023-05-13T18:12:51.705Z,298.65
2023-05-13T18:15:19.865Z,258.23
2023-05-13T18:17:48.082Z,260.55
2023-05-13T18:20:16.128Z,245.68
2023-05-13T18:22:44.094Z,275.95
2023-05-13T18:25:12.105Z,266.88
2023-05-13T18:27:41.791Z,233.30
2023-05-13T18:30:10.888Z,247.20
2023-05-13T18:32:38.971Z,234.52
2023-05-13T18:35:07.704Z,254.73
2023-05-13T18:37:35.825Z,226.70
2023-05-13T18:40:03.899Z,228.13
2023-05-13T18:42:31.894Z,212.02
2023-05-13T18:45:01.243Z,225.77
2023-05-13T18:47:29.303Z,216.48
2023-05-13T18:49:57.280Z,243.13
2023-05-13T18:52:26.043Z,239.88
2023-05-13T18:54:54.000Z,223.15
2023-05-13T18:57:23.717Z,196.77
2023-05-13T18:59:52.238Z,185.65
2023-05-13T19:02:21.796Z,188.73
2023-05-13T19:04:49.902Z,197.48
2023-05-13T19:07:17.870Z,156.40
2023-05-13T19:09:45.828Z,177.35
2023-05-13T19:12:13.807Z,159.93
2023-05-13T19:14:42.748Z,167.98
2023-05-13T19:17:11.079Z,165.02
2023-05-13T19:19:41.013Z,186.88
2023-05-13T19:22:08.966Z,157.10
2023-05-13T19:24:37.266Z,155.50
2023-05-13T19:27:06.742Z,162.75
2023-05-13T19:29:35.299Z,156.73
2023-05-13T19:32:03.267Z,145.10
2023-05-13T19:34:31.232Z,156.57
2023-05-13T19:37:00.680Z,55.17
2023-05-13T19:39:28.627Z,73.57
2023-05-13T19:41:56.580Z,41.60
2023-05-13T19:44:27.871Z,72.85
2023-05-13T19:46:56.570Z,37.53
2023-05-13T19:49:25.440Z,49.65
2023-05-13T19:51:53.661Z,46.83
2023-05-13T19:54:22.952Z,45.97
2023-05-13T19:56:50.940Z,53.70
2023-05-13T19:59:18.929Z,45.60
2023-05-13T20:01:47.789Z,51.05
2023-05-13T20:04:16.465Z,43.92
2023-05-13T20:06:44.483Z,29.65
2023-05-13T20:09:12.489Z,23.90
2023-05-13T20:11:41.941Z,25.65
2023-05-13T20:14:11.339Z,25.35
2023-05-13T20:16:39.335Z,22.33
2023-05-13T20:19:08.329Z,24.17
2023-05-13T20:21:36.322Z,32.03
2023-05-13T20:24:04.329Z,24.58
2023-05-13T20:26:34.660Z,32.63
2023-05-13T20:29:04.066Z,39.67
2023-05-13T20:31:32.100Z,30.98
2023-05-13T20:34:00.348Z,27.83
2023-05-13T20:36:28.354Z,30.55
2023-05-13T20:38:56.312Z,36.65
2023-05-13T20:41:24.275Z,29.55
2023-05-13T20:43:52.264Z,30.77
2023-05-13T20:46:21.613Z,36.72
2023-05-13T20:48:49.618Z,39.55
2023-05-13T20:51:17.728Z,33.25
2023-05-13T20:53:46.483Z,31.00
2023-05-13T20:56:14.443Z,29.73
2023-05-13T20:58:42.399Z,30.48
2023-05-13T21:01:10.390Z,27.48
2023-05-13T21:03:39.748Z,31.30
2023-05-13T21:06:07.776Z,31.83
2023-05-13T21:08:36.895Z,43.65
2023-05-13T21:11:05.030Z,39.72
2023-05-13T21:13:34.723Z,24.42
2023-05-13T21:16:04.701Z,32.95
2023-05-13T21:18:34.069Z,37.53
2023-05-13T21:21:08.454Z,40.95
2023-05-13T21:23:37.018Z,40.10
2023-05-13T21:26:06.365Z,42.42
2023-05-13T21:28:34.329Z,52.20
2023-05-13T21:31:02.499Z,44.63
2023-05-13T21:33:30.601Z,46.53
2023-05-13T21:35:58.579Z,59.78
2023-05-13T21:38:28.639Z,61.47
2023-05-13T21:40:56.649Z,93.15
2023-05-13T21:43:24.582Z,101.18
2023-05-13T21:45:52.652Z,85.55
2023-05-13T21:48:20.978Z,94.85
2023-05-13T21:50:49.037Z,93.15
2023-05-13T21:53:17.058Z,104.60
2023-05-13T21:55:46.686Z,130.85
2023-05-13T21:58:14.645Z,139.93
2023-05-13T22:00:42.574Z,118.68
2023-05-13T22:03:10.689Z,120.25
2023-05-13T22:05:43.789Z,144.13
2023-05-13T22:08:12.174Z,141.88
2023-05-13T22:10:40.967Z,150.40
2023-05-13T22:13:10.365Z,140.63
2023-05-13T22:15:38.361Z,159.30
2023-05-13T22:18:06.826Z,152.20
2023-05-13T22:20:34.874Z,158.23
2023-05-13T22:23:02.948Z,156.45
2023-05-13T22:25:30.903Z,156.15
2023-05-13T22:27:58.878Z,156.00
2023-05-13T22:30:28.254Z,169.63
2023-05-13T22:32:57.080Z,171.60
2023-05-13T22:35:25.095Z,178.65
2023-05-13T22:37:53.123Z,172.55
2023-05-13T22:40:21.264Z,182.27
2023-05-13T22:42:49.379Z,164.63
2023-05-13T22:45:17.544Z,168.07
2023-05-13T22:47:46.973Z,174.45
2023-05-13T22:50:14.919Z,180.65
2023-05-13T22:52:42.855Z,172.15
2023-05-13T22:55:11.532Z,177.53
2023-05-13T22:57:39.560Z,178.65
2023-05-13T23:00:08.795Z,183.15
2023-05-13T23:02:36.765Z,185.33
2023-05-13T23:05:07.285Z,190.82
2023-05-13T23:07:35.264Z,189.85
2023-05-13T23:10:03.199Z,168.53
2023-05-13T23:12:31.181Z,166.43
2023-05-13T23:14:59.128Z,176.60
2023-05-13T23:17:27.140Z,174.35
2023-05-13T23:19:55.126Z,163.35
2023-05-13T23:22:24.471Z,163.82
2023-05-13T23:24:52.413Z,159.65
2023-05-13T23:27:20.766Z,101.47
2023-05-13T23:29:48.719Z,164.35
2023-05-13T23:32:16.776Z,151.80
2023-05-13T23:34:44.731Z,156.00
2023-05-13T23:37:15.471Z,165.40
2023-05-13T23:39:45.175Z,171.52
2023-05-13T23:42:13.154Z,169.90
2023-05-13T23:44:41.352Z,159.80
2023-05-13T23:47:09.307Z,163.07
2023-05-13T23:49:37.255Z,158.48
2023-05-13T23:52:05.564Z,155.50
2023-05-13T23:54:33.588Z,157.43
2023-05-13T23:57:02.915Z,164.83
2023-05-13T23:59:30.900Z,157.85
